createdAt,value
2023-11-28T00:01:53.664Z,98335.19
2023-11-28T00:04:21.102Z,98321.94
2023-11-28T00:06:52.902Z,98324.81
2023-11-28T00:09:25.283Z,98323.22
2023-11-28T00:11:55.048Z,98310.44
2023-11-28T00:14:22.285Z,98301.75
2023-11-28T00:16:49.689Z,98297.53
2023-11-28T00:19:17.101Z,98300.00
2023-11-28T00:21:47.423Z,98292.56
2023-11-28T00:24:17.090Z,98290.69
2023-11-28T00:26:47.211Z,98285.38
2023-11-28T00:29:14.400Z,98283.28
2023-11-28T00:31:43.598Z,98279.56
2023-11-28T00:34:12.121Z,98269.34
2023-11-28T00:36:39.391Z,98268.44
2023-11-28T00:39:06.883Z,98266.88
2023-11-28T00:41:34.465Z,98255.53
2023-11-28T00:44:02.410Z,98256.34
2023-11-28T00:46:29.649Z,98256.91
2023-11-28T00:48:57.958Z,98255.41
2023-11-28T00:51:25.188Z,98252.47
2023-11-28T00:53:52.183Z,98243.56
2023-11-28T00:56:20.466Z,98244.13
2023-11-28T00:58:48.706Z,98238.78
2023-11-28T01:01:17.576Z,98231.72
2023-11-28T01:03:45.793Z,98235.31
2023-11-28T01:06:13.090Z,98228.59
2023-11-28T01:08:40.029Z,98213.16
2023-11-28T01:11:07.469Z,98209.44
2023-11-28T01:13:34.470Z,98198.63
2023-11-28T01:16:01.582Z,98199.91
2023-11-28T01:18:29.329Z,98198.03
2023-11-28T01:20:56.287Z,98195.97
2023-11-28T01:23:23.286Z,98185.28
2023-11-28T01:25:51.368Z,98179.38
2023-11-28T01:28:18.465Z,98175.88
2023-11-28T01:30:45.404Z,98162.91
2023-11-28T01:33:13.440Z,98168.59
2023-11-28T01:35:40.789Z,98168.00
2023-11-28T01:38:07.820Z,98158.13
2023-11-28T01:40:35.064Z,98154.56
2023-11-28T01:43:02.029Z,98149.09
2023-11-28T01:45:28.992Z,98147.81
2023-11-28T01:47:57.722Z,98139.25
2023-11-28T01:50:25.090Z,98132.88
2023-11-28T01:52:52.686Z,98128.91
2023-11-28T01:55:19.780Z,98121.94
2023-11-28T01:57:48.496Z,98124.13
2023-11-28T02:00:16.113Z,98119.06
2023-11-28T02:02:43.308Z,98111.50
2023-11-28T02:05:10.995Z,98111.97
2023-11-28T02:07:38.159Z,98121.34
2023-11-28T02:10:05.419Z,98107.44
2023-11-28T02:12:32.390Z,98109.66
2023-11-28T02:14:59.526Z,98113.38
2023-11-28T02:17:26.680Z,98113.03
2023-11-28T02:19:59.069Z,98101.19
2023-11-28T02:22:27.575Z,98092.38
2023-11-28T02:24:58.270Z,98080.88
2023-11-28T02:27:25.300Z,98089.47
2023-11-28T02:29:52.870Z,98080.28
2023-11-28T02:32:20.756Z,98076.34
2023-11-28T02:34:47.688Z,98072.53
2023-11-28T02:37:14.718Z,98067.66
2023-11-28T02:39:41.628Z,98065.56
2023-11-28T02:42:08.634Z,98058.03
2023-11-28T02:44:35.911Z,98057.13
2023-11-28T02:47:03.468Z,98051.31
2023-11-28T02:49:30.455Z,98056.06
2023-11-28T02:51:57.447Z,98046.91
2023-11-28T02:54:24.288Z,98044.22
2023-11-28T02:56:51.215Z,98040.06
2023-11-28T02:59:18.143Z,98042.63
2023-11-28T03:01:45.300Z,98038.69
2023-11-28T03:04:12.349Z,98026.63
2023-11-28T03:06:39.320Z,98026.41
2023-11-28T03:09:07.453Z,98022.94
2023-11-28T03:11:34.652Z,98019.31
2023-11-28T03:14:01.620Z,98018.50
2023-11-28T03:16:28.729Z,98014.00
2023-11-28T03:18:55.658Z,98000.19
2023-11-28T03:21:22.679Z,97995.34
2023-11-28T03:23:49.621Z,97984.56
2023-11-28T03:26:16.886Z,97992.34
2023-11-28T03:28:43.878Z,97987.22
2023-11-28T03:31:11.864Z,97979.34
2023-11-28T03:33:38.845Z,97975.66
2023-11-28T03:36:06.139Z,97973.00
2023-11-28T03:38:33.570Z,97970.78
2023-11-28T03:41:00.793Z,97969.63
2023-11-28T03:43:27.820Z,97970.09
2023-11-28T03:45:55.080Z,97968.56
2023-11-28T03:48:22.060Z,97964.53
2023-11-28T03:50:49.077Z,97954.81
2023-11-28T03:53:16.074Z,97950.63
2023-11-28T03:55:43.117Z,97948.97
2023-11-28T03:58:10.065Z,97942.25
2023-11-28T04:00:37.197Z,97943.41
2023-11-28T04:03:04.334Z,97941.22
2023-11-28T04:05:31.471Z,97936.44
2023-11-28T04:07:58.337Z,97925.31
2023-11-28T04:10:25.285Z,97926.81
2023-11-28T04:12:52.934Z,97925.19
2023-11-28T04:15:19.987Z,97926.47
2023-11-28T04:17:47.022Z,97917.34
2023-11-28T04:20:14.331Z,97915.84
2023-11-28T04:22:41.635Z,97907.38
2023-11-28T04:25:09.027Z,97902.59
2023-11-28T04:27:36.221Z,97896.53
2023-11-28T04:30:04.017Z,97891.50
2023-11-28T04:32:32.732Z,97888.97
2023-11-28T04:34:59.906Z,97894.16
2023-11-28T04:37:26.855Z,97900.34
2023-11-28T04:39:55.662Z,97893.25
2023-11-28T04:42:22.698Z,97875.97
2023-11-28T04:44:49.801Z,97888.50
2023-11-28T04:47:17.642Z,97882.47
2023-11-28T04:49:44.858Z,97882.97
2023-11-28T04:52:11.900Z,97884.34
2023-11-28T04:54:38.816Z,97888.50
2023-11-28T04:57:06.591Z,97882.69
2023-11-28T04:59:33.693Z,97882.81
2023-11-28T05:02:00.726Z,97887.94
2023-11-28T05:04:28.083Z,97890.59
2023-11-28T05:06:55.005Z,97894.31
2023-11-28T05:09:22.066Z,97887.09
2023-11-28T05:11:48.979Z,97888.72
2023-11-28T05:14:16.103Z,97887.22
2023-11-28T05:16:48.558Z,97893.03
2023-11-28T05:19:21.875Z,97890.22
2023-11-28T05:21:48.794Z,97884.66
2023-11-28T05:24:15.808Z,97881.31
2023-11-28T05:26:42.842Z,97875.84
2023-11-28T05:29:10.021Z,97874.88
2023-11-28T05:31:37.124Z,97872.91
2023-11-28T05:34:04.335Z,97883.00
2023-11-28T05:36:31.861Z,97873.41
2023-11-28T05:38:58.876Z,97880.03
2023-11-28T05:41:25.936Z,97880.22
2023-11-28T05:43:54.668Z,97887.44
2023-11-28T05:46:22.398Z,97891.16
2023-11-28T05:48:49.996Z,97880.16
2023-11-28T05:51:17.392Z,97881.41
2023-11-28T05:53:44.774Z,97877.34
2023-11-28T05:56:13.667Z,97889.88
2023-11-28T05:58:40.906Z,97879.91
2023-11-28T06:01:08.204Z,97870.88
2023-11-28T06:03:36.041Z,97870.97
2023-11-28T06:06:05.314Z,97871.91
2023-11-28T06:08:32.258Z,97863.66
2023-11-28T06:10:59.580Z,97859.13
2023-11-28T06:13:26.537Z,97850.69
2023-11-28T06:15:53.543Z,97850.59
2023-11-28T06:18:21.634Z,97845.75
2023-11-28T06:20:48.551Z,97836.47
2023-11-28T06:23:18.698Z,97837.00
2023-11-28T06:25:47.469Z,97828.47
2023-11-28T06:28:14.505Z,97825.75
2023-11-28T06:30:41.417Z,97817.41
2023-11-28T06:33:08.426Z,97820.25
2023-11-28T06:35:39.454Z,97814.34
2023-11-28T06:38:06.507Z,97811.31
2023-11-28T06:40:34.195Z,97811.53
2023-11-28T06:43:01.344Z,97804.66
2023-11-28T06:45:28.500Z,97809.94
2023-11-28T06:47:55.774Z,97810.09
2023-11-28T06:50:22.923Z,97813.19
2023-11-28T06:52:50.039Z,97811.19
2023-11-28T06:55:20.105Z,97807.84
2023-11-28T06:57:49.282Z,97803.41
2023-11-28T07:00:16.893Z,97801.84
2023-11-28T07:02:44.154Z,97790.66
2023-11-28T07:08:21.203Z,97790.78
2023-11-28T07:10:48.397Z,97789.81
2023-11-28T07:13:15.847Z,97789.31
2023-11-28T07:15:43.084Z,97788.03
2023-11-28T07:18:12.190Z,97788.28
2023-11-28T07:20:39.780Z,97795.44
2023-11-28T07:23:07.718Z,97786.38
2023-11-28T07:25:37.384Z,97778.31
2023-11-28T07:28:05.440Z,97780.94
2023-11-28T07:30:35.888Z,97779.09
2023-11-28T07:33:05.038Z,97776.66
2023-11-28T07:35:31.984Z,97770.69
2023-11-28T07:37:59.225Z,97768.56
2023-11-28T07:40:27.789Z,97771.41
2023-11-28T07:42:57.374Z,97767.84
2023-11-28T07:45:24.642Z,97776.09
2023-11-28T07:47:54.884Z,97774.56
2023-11-28T07:50:34.631Z,97771.25
2023-11-28T07:53:02.287Z,97778.38
2023-11-28T07:55:29.338Z,97777.75
2023-11-28T07:57:56.354Z,97777.97
2023-11-28T08:00:27.282Z,97783.00
2023-11-28T08:02:54.407Z,97777.47
2023-11-28T08:05:21.536Z,97782.91
2023-11-28T08:07:48.672Z,97778.56
2023-11-28T08:10:15.706Z,97772.16
2023-11-28T08:12:43.001Z,97781.78
2023-11-28T08:15:10.365Z,97785.13
2023-11-28T08:17:41.633Z,97785.66
2023-11-28T08:20:09.765Z,97786.34
2023-11-28T08:22:39.413Z,97791.38
2023-11-28T08:25:06.767Z,97782.69
2023-11-28T08:27:33.724Z,97794.94
2023-11-28T08:30:04.897Z,97795.19
2023-11-28T08:32:35.432Z,97793.84
2023-11-28T08:35:02.830Z,97801.44
2023-11-28T08:37:29.765Z,97798.03
2023-11-28T08:39:56.985Z,97802.69
2023-11-28T08:42:24.066Z,97806.19
2023-11-28T08:44:51.163Z,97805.28
2023-11-28T08:47:18.313Z,97813.31
2023-11-28T08:49:48.622Z,97803.34
2023-11-28T08:52:15.811Z,97815.38
2023-11-28T08:54:46.400Z,97813.19
2023-11-28T08:57:16.840Z,97813.13
2023-11-28T08:59:44.451Z,97815.13
2023-11-28T09:02:11.883Z,97807.94
2023-11-28T09:04:39.149Z,97816.88
2023-11-28T09:07:06.388Z,97812.75
2023-11-28T09:09:33.475Z,97824.47
2023-11-28T09:12:00.591Z,97826.16
2023-11-28T09:14:27.648Z,97835.47
2023-11-28T09:16:54.964Z,97828.66
2023-11-28T09:19:25.194Z,97838.84
2023-11-28T09:21:52.124Z,97825.09
2023-11-28T09:24:19.113Z,97836.47
2023-11-28T09:26:46.446Z,97827.75
2023-11-28T09:29:18.818Z,97830.19
2023-11-28T09:31:46.137Z,97824.66
2023-11-28T09:34:13.147Z,97831.13
2023-11-28T09:36:40.393Z,97830.59
2023-11-28T09:39:10.974Z,97831.41
2023-11-28T09:41:46.190Z,97837.16
2023-11-28T09:44:26.978Z,97822.09
2023-11-28T09:46:58.297Z,97824.31
2023-11-28T09:49:31.525Z,97822.84
2023-11-28T09:52:00.343Z,97821.13
2023-11-28T09:54:29.618Z,97811.75
2023-11-28T09:56:57.175Z,97818.13
2023-11-28T09:59:30.856Z,97819.50
2023-11-28T10:02:01.780Z,97820.22
2023-11-28T10:04:29.047Z,97816.63
2023-11-28T10:06:59.763Z,97820.66
2023-11-28T10:09:27.118Z,97820.41
2023-11-28T10:11:56.766Z,97818.88
2023-11-28T10:14:23.940Z,97825.41
2023-11-28T10:16:52.858Z,97811.13
2023-11-28T10:19:20.009Z,97811.78
2023-11-28T10:21:47.636Z,97806.44
2023-11-28T10:24:15.440Z,97802.19
2023-11-28T10:26:42.326Z,97801.31
2023-11-28T10:29:10.001Z,97801.69
2023-11-28T10:31:38.800Z,97802.03
2023-11-28T10:34:10.208Z,97804.63
2023-11-28T10:36:47.682Z,97798.28
2023-11-28T10:39:17.053Z,97803.44
2023-11-28T10:41:44.178Z,97797.75
2023-11-28T10:44:11.391Z,97797.81
2023-11-28T10:46:40.916Z,97791.94
2023-11-28T10:49:08.412Z,97793.94
2023-11-28T10:51:36.895Z,97803.72
2023-11-28T10:54:19.039Z,97811.28
2023-11-28T10:56:54.441Z,97804.47
2023-11-28T10:59:21.368Z,97802.16
2023-11-28T11:01:49.391Z,97802.72
2023-11-28T11:04:16.577Z,97808.13
2023-11-28T11:06:43.683Z,97802.66
2023-11-28T11:09:13.002Z,97800.84
2023-11-28T11:11:42.468Z,97796.16
2023-11-28T11:14:19.279Z,97786.38
2023-11-28T11:17:14.908Z,97793.63
2023-11-28T11:19:48.970Z,97778.28
2023-11-28T11:22:28.188Z,97788.41
2023-11-28T11:25:01.799Z,97783.25
2023-11-28T11:27:30.028Z,97777.56
2023-11-28T11:29:57.202Z,97780.63
2023-11-28T11:32:25.090Z,97793.50
2023-11-28T11:34:52.818Z,97788.84
2023-11-28T11:37:32.210Z,97804.06
2023-11-28T11:40:03.588Z,97801.06
2023-11-28T11:42:35.133Z,97799.00
2023-11-28T11:45:08.232Z,97805.75
2023-11-28T11:47:40.654Z,97804.88
2023-11-28T11:50:09.645Z,97805.38
2023-11-28T11:52:39.914Z,97804.78
2023-11-28T11:55:06.905Z,97802.03
2023-11-28T11:57:34.437Z,97802.16
2023-11-28T12:00:01.720Z,97804.06
2023-11-28T12:02:45.287Z,97801.34
2023-11-28T12:05:14.193Z,97802.56
2023-11-28T12:07:42.199Z,97796.94
2023-11-28T12:10:11.290Z,97806.06
2023-11-28T12:12:41.921Z,97794.50
2023-11-28T12:15:13.684Z,97796.13
2023-11-28T12:17:42.449Z,97795.63
2023-11-28T12:20:10.845Z,97797.72
2023-11-28T12:22:38.415Z,97792.03
2023-11-28T12:25:05.830Z,97798.22
2023-11-28T12:27:33.537Z,97788.47
2023-11-28T12:30:05.021Z,97800.44
2023-11-28T12:32:32.156Z,97797.63
2023-11-28T12:34:59.677Z,97792.47
2023-11-28T12:37:31.003Z,97803.44
2023-11-28T12:39:58.998Z,97802.88
2023-11-28T12:42:27.317Z,97792.94
2023-11-28T12:44:58.531Z,97792.09
2023-11-28T12:47:27.497Z,97790.88
2023-11-28T12:49:54.656Z,97790.59
2023-11-28T12:52:28.586Z,97793.72
2023-11-28T12:54:56.437Z,97801.06
2023-11-28T12:57:26.759Z,97803.13
2023-11-28T12:59:53.908Z,97801.53
2023-11-28T13:02:21.249Z,97802.34
2023-11-28T13:04:48.746Z,97806.03
2023-11-28T13:07:26.722Z,97816.00
2023-11-28T13:10:01.476Z,97815.19
2023-11-28T13:12:28.843Z,97808.56
2023-11-28T13:14:56.316Z,97806.41
2023-11-28T13:17:24.045Z,97816.75
2023-11-28T13:19:54.378Z,97826.34
2023-11-28T13:22:21.470Z,97823.44
2023-11-28T13:24:52.168Z,97831.22
2023-11-28T13:27:19.961Z,97832.09
2023-11-28T13:29:48.042Z,97831.00
2023-11-28T13:32:16.214Z,97831.84
2023-11-28T13:34:51.012Z,97834.13
2023-11-28T13:37:28.605Z,97833.22
2023-11-28T13:39:56.117Z,97836.84
2023-11-28T13:42:24.151Z,97836.13
2023-11-28T13:44:52.157Z,97833.44
2023-11-28T13:47:23.430Z,97826.50
2023-11-28T13:49:52.883Z,97837.25
2023-11-28T13:52:20.149Z,97836.09
2023-11-28T13:54:49.945Z,97844.06
2023-11-28T13:57:21.259Z,97840.75
2023-11-28T13:59:51.548Z,97843.34
2023-11-28T14:02:22.740Z,97852.16
2023-11-28T14:04:51.880Z,97850.09
2023-11-28T14:07:18.838Z,97857.47
2023-11-28T14:09:47.040Z,97849.28
2023-11-28T14:12:15.412Z,97862.59
2023-11-28T14:14:50.623Z,97868.22
2023-11-28T14:17:23.775Z,97874.38
2023-11-28T14:19:51.132Z,97887.22
2023-11-28T14:22:18.270Z,97881.72
2023-11-28T14:24:45.231Z,97890.47
2023-11-28T14:27:12.320Z,97887.22
2023-11-28T14:29:39.279Z,97901.25
2023-11-28T14:32:07.569Z,97902.88
2023-11-28T14:34:35.074Z,97912.09
2023-11-28T14:37:02.854Z,97921.56
2023-11-28T14:39:35.898Z,97922.69
2023-11-28T14:42:04.161Z,97930.03
2023-11-28T14:44:31.731Z,97923.81
2023-11-28T14:46:58.935Z,97927.59
2023-11-28T14:49:26.018Z,97925.75
2023-11-28T14:51:53.294Z,97925.59
2023-11-28T14:54:21.042Z,97939.53
2023-11-28T14:56:48.316Z,97930.06
2023-11-28T14:59:16.395Z,97937.09
2023-11-28T15:01:44.106Z,97935.97
2023-11-28T15:04:11.249Z,97942.94
2023-11-28T15:06:40.510Z,97944.00
2023-11-28T15:09:07.962Z,97944.91
2023-11-28T15:11:35.480Z,97958.56
2023-11-28T15:14:03.590Z,97954.75
2023-11-28T15:16:35.830Z,97958.00
2023-11-28T15:19:06.177Z,97953.94
2023-11-28T15:21:40.018Z,97962.88
2023-11-28T15:24:23.273Z,97963.59
2023-11-28T15:26:51.129Z,97971.66
2023-11-28T15:29:18.319Z,97968.72
2023-11-28T15:31:45.373Z,97967.50
2023-11-28T15:34:12.504Z,97976.09
2023-11-28T15:36:39.458Z,97983.47
2023-11-28T15:39:15.576Z,97989.84
2023-11-28T15:41:42.656Z,98007.59
2023-11-28T15:44:10.525Z,98010.31
2023-11-28T15:46:37.511Z,98011.72
2023-11-28T15:49:04.522Z,98015.00
2023-11-28T15:51:37.760Z,98024.97
2023-11-28T15:54:08.315Z,98034.13
2023-11-28T15:56:36.012Z,98037.97
2023-11-28T15:59:04.389Z,98039.38
2023-11-28T16:01:32.393Z,98039.50
2023-11-28T16:03:59.711Z,98045.88
2023-11-28T16:06:26.704Z,98050.72
2023-11-28T16:08:53.779Z,98054.88
2023-11-28T16:11:21.202Z,98059.06
2023-11-28T16:13:48.360Z,98061.97
2023-11-28T16:16:16.471Z,98057.44
2023-11-28T16:18:43.781Z,98070.94
2023-11-28T16:21:11.512Z,98064.75
2023-11-28T16:23:38.767Z,98075.91
2023-11-28T16:26:06.198Z,98071.38
2023-11-28T16:28:33.595Z,98088.53
2023-11-28T16:31:00.738Z,98083.00
2023-11-28T16:33:27.915Z,98090.31
2023-11-28T16:35:59.563Z,98101.78
2023-11-28T16:38:26.733Z,98092.72
2023-11-28T16:40:54.003Z,98085.63
2023-11-28T16:43:21.070Z,98080.88
2023-11-28T16:45:50.194Z,98083.00
2023-11-28T16:48:18.655Z,98082.50
2023-11-28T16:50:45.731Z,98082.84
2023-11-28T16:53:13.638Z,98086.31
2023-11-28T16:55:40.791Z,98102.31
2023-11-28T16:58:08.145Z,98091.22
2023-11-28T17:00:36.949Z,98102.09
2023-11-28T17:03:04.288Z,98108.13
2023-11-28T17:05:32.300Z,98119.16
2023-11-28T17:08:01.573Z,98132.16
2023-11-28T17:10:32.908Z,98143.56
2023-11-28T17:12:59.916Z,98146.44
2023-11-28T17:15:27.358Z,98148.63
2023-11-28T17:17:54.365Z,98165.56
2023-11-28T17:20:22.354Z,98165.13
2023-11-28T17:22:49.620Z,98166.75
2023-11-28T17:25:16.965Z,98169.19
2023-11-28T17:27:44.220Z,98178.00
2023-11-28T17:30:11.684Z,98187.28
2023-11-28T17:32:39.603Z,98185.66
2023-11-28T17:35:13.600Z,98197.38
2023-11-28T17:37:43.272Z,98213.38
2023-11-28T17:40:10.519Z,98217.91
2023-11-28T17:42:38.049Z,98220.47
2023-11-28T17:45:06.169Z,98220.09
2023-11-28T17:47:35.633Z,98220.09
2023-11-28T17:50:06.043Z,98224.38
2023-11-28T17:52:33.363Z,98230.41
2023-11-28T17:55:01.260Z,98242.84
2023-11-28T17:57:28.486Z,98247.13
2023-11-28T17:59:55.382Z,98256.22
2023-11-28T18:02:22.636Z,98252.16
2023-11-28T18:04:49.890Z,98257.97
2023-11-28T18:07:20.230Z,98254.81
2023-11-28T18:09:47.471Z,98264.00
2023-11-28T18:12:14.585Z,98276.19
2023-11-28T18:14:41.818Z,98285.47
2023-11-28T18:17:08.861Z,98301.25
2023-11-28T18:19:35.874Z,98303.59
2023-11-28T18:22:03.167Z,98300.47
2023-11-28T18:24:30.226Z,98316.13
2023-11-28T18:27:04.586Z,98316.63
2023-11-28T18:29:32.074Z,98321.72
2023-11-28T18:32:02.813Z,98318.44
2023-11-28T18:34:39.512Z,98317.16
2023-11-28T18:37:07.395Z,98328.34
2023-11-28T18:39:34.823Z,98326.59
2023-11-28T18:42:02.693Z,98333.06
2023-11-28T18:44:30.144Z,98337.84
2023-11-28T18:47:05.035Z,98339.94
2023-11-28T18:49:44.397Z,98341.00
2023-11-28T18:52:12.079Z,98349.72
2023-11-28T18:54:42.717Z,98353.28
2023-11-28T18:57:12.028Z,98364.56
2023-11-28T18:59:40.535Z,98370.38
2023-11-28T19:02:10.433Z,98376.31
2023-11-28T19:04:42.073Z,98382.44
2023-11-28T19:07:12.197Z,98386.31
2023-11-28T19:09:42.976Z,98386.63
2023-11-28T19:12:10.422Z,98388.72
2023-11-28T19:14:40.024Z,98388.00
2023-11-28T19:17:07.103Z,98398.59
2023-11-28T19:19:37.882Z,98405.25
2023-11-28T19:22:05.982Z,98403.72
2023-11-28T19:24:35.800Z,98399.53
2023-11-28T19:27:06.030Z,98390.94
2023-11-28T19:29:33.144Z,98406.50
2023-11-28T19:32:00.474Z,98398.94
2023-11-28T19:34:30.037Z,98384.19
2023-11-28T19:36:58.050Z,98401.88
2023-11-28T19:39:26.140Z,98410.13
2023-11-28T19:42:21.326Z,98423.50
2023-11-28T19:45:00.782Z,98438.69
2023-11-28T19:47:28.077Z,98443.75
2023-11-28T19:49:58.836Z,98447.25
2023-11-28T19:52:27.852Z,98463.50
2023-11-28T19:54:54.829Z,98477.69
2023-11-28T19:57:26.692Z,98489.50
2023-11-28T19:59:57.832Z,98491.53
2023-11-28T20:02:36.424Z,98472.28
2023-11-28T20:05:06.275Z,98461.41
2023-11-28T20:07:34.648Z,98481.72
2023-11-28T20:10:06.785Z,98479.44
2023-11-28T20:12:34.571Z,98488.81
2023-11-28T20:15:01.872Z,98500.78
2023-11-28T20:17:32.246Z,98504.72
2023-11-28T20:20:01.346Z,98512.13
2023-11-28T20:22:28.395Z,98522.91
2023-11-28T20:24:55.382Z,98532.41
2023-11-28T20:27:22.797Z,98548.56
2023-11-28T20:29:49.876Z,98565.34
2023-11-28T20:32:16.881Z,98566.41
2023-11-28T20:34:44.193Z,98571.50
2023-11-28T20:37:18.841Z,98560.81
2023-11-28T20:40:02.817Z,98559.66
2023-11-28T20:42:30.044Z,98558.91
2023-11-28T20:44:57.470Z,98556.25
2023-11-28T20:47:24.658Z,98562.47
2023-11-28T20:49:51.846Z,98581.16
2023-11-28T20:52:19.167Z,98571.22
2023-11-28T20:54:46.194Z,98578.34
2023-11-28T20:57:13.195Z,98558.59
2023-11-28T20:59:40.365Z,98557.38
2023-11-28T21:02:08.461Z,98545.69
2023-11-28T21:04:36.091Z,98548.75
2023-11-28T21:07:03.302Z,98543.03
2023-11-28T21:09:31.855Z,98549.78
2023-11-28T21:11:58.890Z,98557.44
2023-11-28T21:14:25.866Z,98557.94
2023-11-28T21:16:52.897Z,98566.16
2023-11-28T21:19:19.933Z,98564.19
2023-11-28T21:21:46.932Z,98563.66
2023-11-28T21:24:15.577Z,98569.56
2023-11-28T21:26:44.379Z,98578.03
2023-11-28T21:29:11.558Z,98594.06
2023-11-28T21:31:38.586Z,98609.34
2023-11-28T21:34:05.593Z,98628.09
2023-11-28T21:36:37.198Z,98647.53
2023-11-28T21:39:05.559Z,98667.38
2023-11-28T21:41:32.731Z,98678.19
2023-11-28T21:44:00.317Z,98677.16
2023-11-28T21:46:27.329Z,98672.13
2023-11-28T21:48:58.935Z,98673.53
2023-11-28T21:51:25.938Z,98680.84
2023-11-28T21:53:52.952Z,98683.50
2023-11-28T21:56:19.940Z,98685.19
2023-11-28T21:58:49.489Z,98701.41
2023-11-28T22:01:17.984Z,98698.53
2023-11-28T22:03:47.551Z,98694.97
2023-11-28T22:06:14.787Z,98689.16
2023-11-28T22:08:53.804Z,98692.44
2023-11-28T22:11:26.533Z,98695.84
2023-11-28T22:13:56.611Z,98702.19
2023-11-28T22:16:23.569Z,98700.78
2023-11-28T22:18:50.696Z,98707.34
2023-11-28T22:21:21.553Z,98696.53
2023-11-28T22:23:50.089Z,98698.97
2023-11-28T22:26:16.988Z,98691.66
2023-11-28T22:28:43.956Z,98692.06
2023-11-28T22:31:11.035Z,98685.63
2023-11-28T22:33:38.031Z,98692.75
2023-11-28T22:36:06.200Z,98688.00
2023-11-28T22:38:33.252Z,98682.75
2023-11-28T22:41:00.199Z,98677.56
2023-11-28T22:43:27.244Z,98695.66
2023-11-28T22:45:54.448Z,98698.34
2023-11-28T22:48:22.268Z,98699.34
2023-11-28T22:50:49.494Z,98701.72
2023-11-28T22:53:24.794Z,98724.03
